Time;durP1;ratioP1;P1;durP2;ratioP2;P2;SDS_P1;SDS_P2;PMS_P1;PMS_P2;Temp;Humidity;BMP_temperature;BMP_pressure;BME280_temperature;BME280_humidity;BME280_pressure;Samples;Min_cycle;Max_cycle;Signal;HPM_P1;HPM_P2
2022/01/19 00:02:24;;;;;;;14.27;7.00;;;;;;;;;;5032778;28;20116;-64
2022/01/19 00:04:50;;;;;;;13.48;7.07;;;;;;;;;;5032732;28;20067;-64
2022/01/19 00:07:16;;;;;;;11.82;6.35;;;;;;;;;;5032388;28;20030;-64
2022/01/19 00:09:42;;;;;;;11.43;5.55;;;;;;;;;;5034286;28;20052;-64
2022/01/19 00:12:08;;;;;;;12.15;5.85;;;;;;;;;;5032962;28;20204;-64
2022/01/19 00:14:35;;;;;;;11.35;4.70;;;;;;;;;;5032614;28;20029;-64
2022/01/19 00:17:01;;;;;;;14.45;4.78;;;;;;;;;;5032232;28;20494;-64
2022/01/19 00:19:27;;;;;;;11.38;4.90;;;;;;;;;;5029675;28;20038;-64
2022/01/19 00:21:53;;;;;;;8.02;4.07;;;;;;;;;;5035550;28;20095;-64
2022/01/19 00:24:19;;;;;;;13.55;4.85;;;;;;;;;;5032392;28;20083;-64
2022/01/19 00:26:46;;;;;;;11.45;4.88;;;;;;;;;;5034099;28;20030;-64
2022/01/19 00:29:12;;;;;;;9.32;4.32;;;;;;;;;;5032599;28;20128;-64
2022/01/19 00:31:38;;;;;;;11.75;5.00;;;;;;;;;;5029176;28;20069;-64
2022/01/19 00:34:04;;;;;;;9.43;4.30;;;;;;;;;;5034851;28;20057;-64
2022/01/19 00:36:31;;;;;;;10.70;5.30;;;;;;;;;;5032795;28;20461;-64
2022/01/19 00:38:57;;;;;;;9.30;5.00;;;;;;;;;;5031234;28;20682;-64
2022/01/19 00:41:23;;;;;;;10.50;5.25;;;;;;;;;;5032549;28;20554;-64
2022/01/19 00:43:48;;;;;;;10.45;5.60;;;;;;;;;;5030168;28;20049;-64
2022/01/19 00:46:14;;;;;;;9.43;4.82;;;;;;;;;;5032493;28;20466;-64
2022/01/19 00:48:41;;;;;;;9.38;4.93;;;;;;;;;;5033938;28;20026;-63
2022/01/19 00:51:08;;;;;;;8.55;4.40;;;;;;;;;;5032558;28;20046;-65
2022/01/19 00:53:34;;;;;;;9.88;4.93;;;;;;;;;;5032411;28;20032;-63
2022/01/19 00:55:59;;;;;;;12.02;4.43;;;;;;;;;;5031486;28;20041;-63
2022/01/19 00:58:26;;;;;;;10.52;4.68;;;;;;;;;;5029599;28;20052;-63
2022/01/19 01:00:52;;;;;;;10.55;4.45;;;;;;;;;;5035817;28;20330;-63
2022/01/19 01:03:18;;;;;;;8.75;4.47;;;;;;;;;;5036570;28;20495;-64
2022/01/19 01:05:44;;;;;;;9.73;4.65;;;;;;;;;;5036303;28;20021;-63
2022/01/19 01:08:10;;;;;;;11.43;4.97;;;;;;;;;;5036085;28;20033;-64
2022/01/19 01:10:42;;;;;;;8.55;4.28;;;;;;;;;;5032368;28;20060;-63
2022/01/19 01:16:16;;;;;;;7.75;4.22;;;;;;;;;;5019293;28;20055;-63
2022/01/19 01:18:42;;;;;;;9.38;4.50;;;;;;;;;;5037492;28;20566;-63
2022/01/19 01:21:08;;;;;;;9.38;4.55;;;;;;;;;;5035743;28;20025;-63
2022/01/19 01:23:35;;;;;;;9.95;5.03;;;;;;;;;;5035585;28;20037;-63
2022/01/19 01:26:02;;;;;;;13.93;4.70;;;;;;;;;;5036668;28;20036;-65
2022/01/19 01:28:28;;;;;;;13.25;4.68;;;;;;;;;;5033065;28;20034;-63
2022/01/19 01:30:54;;;;;;;9.65;4.90;;;;;;;;;;5038669;28;20492;-63
2022/01/19 01:33:20;;;;;;;9.32;4.35;;;;;;;;;;5035823;28;20040;-63
2022/01/19 01:35:47;;;;;;;12.00;4.53;;;;;;;;;;5035542;28;20575;-63
2022/01/19 01:38:13;;;;;;;11.40;4.70;;;;;;;;;;5035369;28;20128;-63
2022/01/19 01:40:39;;;;;;;9.77;4.13;;;;;;;;;;5032314;28;20026;-64
2022/01/19 01:43:07;;;;;;;10.32;4.28;;;;;;;;;;5037761;28;20475;-63
2022/01/19 01:45:35;;;;;;;13.05;5.28;;;;;;;;;;5036611;28;20037;-64
2022/01/19 01:48:12;;;;;;;9.18;4.35;;;;;;;;;;5035169;28;20381;-64
2022/01/19 01:53:28;;;;;;;9.88;4.10;;;;;;;;;;5035919;28;20816;-63
2022/01/19 01:55:58;;;;;;;8.75;4.40;;;;;;;;;;5034053;28;20033;-63
2022/01/19 01:58:25;;;;;;;11.93;4.53;;;;;;;;;;5032914;28;20117;-64
2022/01/19 02:00:51;;;;;;;10.68;4.85;;;;;;;;;;5037905;28;20033;-64
2022/01/19 02:03:17;;;;;;;11.80;4.80;;;;;;;;;;5035222;28;20507;-63
2022/01/19 02:08:57;;;;;;;10.07;4.13;;;;;;;;;;5020650;28;20113;-64
2022/01/19 02:23:26;;;;;;;15.68;4.35;;;;;;;;;;5008409;28;20044;-63
2022/01/19 02:25:53;;;;;;;9.50;3.65;;;;;;;;;;5034550;28;20563;-64
2022/01/19 02:42:09;;;;;;;8.65;4.30;;;;;;;;;;5034095;28;20051;-64
2022/01/19 02:49:48;;;;;;;9.82;4.28;;;;;;;;;;5031912;28;20061;-64
2022/01/19 02:52:14;;;;;;;6.97;3.47;;;;;;;;;;5034744;28;20021;-64
2022/01/19 02:54:40;;;;;;;8.35;3.95;;;;;;;;;;5035779;28;20029;-64
2022/01/19 02:57:09;;;;;;;8.23;3.83;;;;;;;;;;5033587;28;20037;-64
2022/01/19 03:10:38;;;;;;;7.95;3.55;;;;;;;;;;5015191;28;20084;-64
2022/01/19 03:13:04;;;;;;;9.35;3.55;;;;;;;;;;5036636;28;20025;-64
2022/01/19 03:15:30;;;;;;;9.55;4.47;;;;;;;;;;5034245;28;20480;-63
2022/01/19 03:17:59;;;;;;;9.77;3.78;;;;;;;;;;5033598;28;20515;-64
2022/01/19 03:20:25;;;;;;;8.85;3.20;;;;;;;;;;5033931;28;20040;-63
2022/01/19 03:25:27;;;;;;;8.93;3.45;;;;;;;;;;5030416;28;20033;-64
2022/01/19 03:27:53;;;;;;;8.02;3.38;;;;;;;;;;5037231;28;20473;-64
2022/01/19 03:30:20;;;;;;;4.60;2.35;;;;;;;;;;5033632;28;20021;-64
2022/01/19 03:32:46;;;;;;;6.25;2.95;;;;;;;;;;5033210;28;20030;-63
2022/01/19 03:35:13;;;;;;;10.05;3.60;;;;;;;;;;5033783;28;20396;-64
2022/01/19 03:37:39;;;;;;;8.68;3.35;;;;;;;;;;5029537;28;20053;-64
2022/01/19 03:40:06;;;;;;;7.20;3.20;;;;;;;;;;5035997;28;20037;-64
2022/01/19 03:42:32;;;;;;;8.40;4.10;;;;;;;;;;5034243;28;20575;-64
2022/01/19 03:44:58;;;;;;;8.65;3.80;;;;;;;;;;5033327;28;20132;-64
2022/01/19 03:47:27;;;;;;;10.20;3.65;;;;;;;;;;5033148;28;20464;-64
2022/01/19 03:49:53;;;;;;;9.77;4.22;;;;;;;;;;5031432;28;20181;-64
2022/01/19 03:52:19;;;;;;;8.55;3.97;;;;;;;;;;5032695;28;20116;-63
2022/01/19 03:54:45;;;;;;;7.95;3.70;;;;;;;;;;5034542;28;20045;-64
2022/01/19 03:57:11;;;;;;;7.13;3.65;;;;;;;;;;5033106;28;20496;-64
2022/01/19 03:59:38;;;;;;;7.97;3.20;;;;;;;;;;5032736;28;20090;-64
2022/01/19 04:02:04;;;;;;;7.63;3.78;;;;;;;;;;5033020;28;20052;-63
2022/01/19 04:04:37;;;;;;;9.20;4.15;;;;;;;;;;5029587;28;20037;-64
2022/01/19 04:09:33;;;;;;;10.27;4.25;;;;;;;;;;5033912;28;20032;-64
2022/01/19 04:11:59;;;;;;;8.27;3.70;;;;;;;;;;5032984;28;20436;-64
2022/01/19 04:14:25;;;;;;;8.90;3.45;;;;;;;;;;5032506;28;20072;-64
2022/01/19 04:17:11;;;;;;;6.82;3.40;;;;;;;;;;5031002;28;20053;-64
2022/01/19 04:22:07;;;;;;;7.38;3.63;;;;;;;;;;5034895;28;20029;-64
2022/01/19 04:24:33;;;;;;;8.88;3.50;;;;;;;;;;5033391;28;20038;-64
2022/01/19 04:29:42;;;;;;;6.50;3.13;;;;;;;;;;5032625;28;20036;-64
2022/01/19 04:32:13;;;;;;;8.63;3.53;;;;;;;;;;5032863;28;20449;-64
2022/01/19 04:34:41;;;;;;;6.63;3.20;;;;;;;;;;5030202;28;20049;-64
2022/01/19 04:45:51;;;;;;;8.60;3.47;;;;;;;;;;5029068;28;20037;-64
2022/01/19 04:48:18;;;;;;;8.50;3.65;;;;;;;;;;5031251;28;20038;-63
2022/01/19 05:07:02;;;;;;;;;;;;;;;;;;5035435;28;20034;-63
2022/01/19 05:15:10;;;;;;;7.88;3.17;;;;;;;;;;5015961;28;20034;-63
2022/01/19 05:17:36;;;;;;;6.43;3.13;;;;;;;;;;5024804;28;20112;-64
2022/01/19 05:20:03;;;;;;;5.93;2.95;;;;;;;;;;5031912;28;20484;-64
2022/01/19 05:22:29;;;;;;;7.30;3.40;;;;;;;;;;5028856;28;20072;-64
2022/01/19 05:24:55;;;;;;;8.57;3.50;;;;;;;;;;5035089;28;20489;-63
2022/01/19 05:27:22;;;;;;;7.07;3.28;;;;;;;;;;5033153;28;20112;-63
2022/01/19 05:29:48;;;;;;;6.32;2.78;;;;;;;;;;5031656;28;20029;-63
2022/01/19 05:32:14;;;;;;;6.13;3.38;;;;;;;;;;5032232;28;20068;-63
2022/01/19 05:34:40;;;;;;;9.05;3.47;;;;;;;;;;5028858;28;20066;-63
2022/01/19 05:37:06;;;;;;;7.20;3.00;;;;;;;;;;5033732;28;20120;-64
2022/01/19 05:39:32;;;;;;;5.82;3.20;;;;;;;;;;5032590;28;20034;-64
2022/01/19 05:41:58;;;;;;;8.13;3.30;;;;;;;;;;5031792;28;20436;-64
2022/01/19 05:44:24;;;;;;;8.30;3.33;;;;;;;;;;5032066;28;20032;-64
2022/01/19 05:46:50;;;;;;;8.95;4.10;;;;;;;;;;5030423;28;20092;-63
2022/01/19 05:49:16;;;;;;;7.55;2.80;;;;;;;;;;5035192;28;20036;-63
2022/01/19 05:51:42;;;;;;;9.95;4.35;;;;;;;;;;5036235;28;20039;-63
2022/01/19 05:54:08;;;;;;;9.55;4.13;;;;;;;;;;5035518;28;20065;-64
2022/01/19 05:56:34;;;;;;;9.65;3.92;;;;;;;;;;5035302;28;20045;-65
2022/01/19 05:59:01;;;;;;;8.07;3.60;;;;;;;;;;5033927;28;20044;-71
2022/01/19 06:01:27;;;;;;;7.85;3.15;;;;;;;;;;5032747;28;20115;-71
2022/01/19 06:03:53;;;;;;;8.93;3.78;;;;;;;;;;5038114;28;20021;-71
2022/01/19 06:06:19;;;;;;;11.93;3.80;;;;;;;;;;5034695;28;20033;-71
2022/01/19 06:08:48;;;;;;;10.45;3.45;;;;;;;;;;5034933;28;20449;-71
2022/01/19 06:11:14;;;;;;;6.60;3.10;;;;;;;;;;5035282;28;20456;-69
2022/01/19 06:13:40;;;;;;;5.95;2.83;;;;;;;;;;5031664;28;20037;-69
2022/01/19 06:16:06;;;;;;;6.75;3.33;;;;;;;;;;5037347;28;20469;-69
2022/01/19 06:18:33;;;;;;;8.48;3.58;;;;;;;;;;5035514;28;20077;-69
2022/01/19 06:20:59;;;;;;;7.63;2.90;;;;;;;;;;5034848;28;20108;-69
2022/01/19 06:23:25;;;;;;;7.53;3.38;;;;;;;;;;5037635;28;20037;-67
2022/01/19 06:25:51;;;;;;;6.70;3.40;;;;;;;;;;5047510;28;20500;-71
2022/01/19 06:28:17;;;;;;;8.73;3.13;;;;;;;;;;5034796;28;20101;-68
2022/01/19 06:30:43;;;;;;;6.97;3.30;;;;;;;;;;5032375;28;20057;-69
2022/01/19 06:33:09;;;;;;;7.85;3.38;;;;;;;;;;5034070;28;20071;-69
2022/01/19 06:35:35;;;;;;;6.95;3.13;;;;;;;;;;5032430;28;20732;-70
2022/01/19 06:38:01;;;;;;;6.70;3.20;;;;;;;;;;5032903;28;20119;-69
2022/01/19 06:40:29;;;;;;;8.90;3.47;;;;;;;;;;5029561;28;20125;-69
2022/01/19 06:42:56;;;;;;;6.47;3.00;;;;;;;;;;5036966;28;20029;-65
2022/01/19 06:45:26;;;;;;;6.80;2.95;;;;;;;;;;5034739;28;20105;-66
2022/01/19 06:47:52;;;;;;;5.63;3.13;;;;;;;;;;5031955;28;20107;-66
2022/01/19 06:50:20;;;;;;;6.53;2.90;;;;;;;;;;5044233;28;20021;-65
2022/01/19 06:52:46;;;;;;;6.13;2.63;;;;;;;;;;5032294;28;20044;-64
2022/01/19 06:55:12;;;;;;;7.72;3.20;;;;;;;;;;5032088;28;20025;-64
2022/01/19 06:57:38;;;;;;;5.85;2.63;;;;;;;;;;5035026;28;20575;-64
2022/01/19 07:00:05;;;;;;;7.97;2.67;;;;;;;;;;5034306;28;20029;-64
2022/01/19 07:02:31;;;;;;;5.78;2.65;;;;;;;;;;5033845;28;20029;-66
2022/01/19 07:04:58;;;;;;;8.82;2.95;;;;;;;;;;5032818;28;20025;-65
2022/01/19 07:07:24;;;;;;;7.47;2.92;;;;;;;;;;5032353;28;20444;-64
2022/01/19 07:09:50;;;;;;;9.05;3.38;;;;;;;;;;5036234;28;20026;-65
2022/01/19 07:12:16;;;;;;;5.70;2.95;;;;;;;;;;5033797;28;20037;-64
2022/01/19 07:14:43;;;;;;;7.68;3.00;;;;;;;;;;5033224;28;20051;-64
2022/01/19 07:17:09;;;;;;;8.30;3.35;;;;;;;;;;5028746;28;20036;-66
2022/01/19 07:19:35;;;;;;;7.80;3.10;;;;;;;;;;5027804;28;20037;-66
2022/01/19 07:22:01;;;;;;;7.95;3.38;;;;;;;;;;5036729;28;20101;-66
2022/01/19 07:24:27;;;;;;;9.07;4.40;;;;;;;;;;5043120;28;20163;-66
2022/01/19 07:26:53;;;;;;;7.45;3.70;;;;;;;;;;5039240;28;20179;-66
2022/01/19 07:29:19;;;;;;;8.60;4.05;;;;;;;;;;5033416;28;20028;-66
2022/01/19 07:31:45;;;;;;;9.15;3.75;;;;;;;;;;5030814;28;20041;-66
2022/01/19 07:34:11;;;;;;;8.05;3.83;;;;;;;;;;5034353;28;20033;-66
2022/01/19 07:36:37;;;;;;;6.82;3.58;;;;;;;;;;5033883;28;20029;-66
2022/01/19 07:39:03;;;;;;;6.03;3.13;;;;;;;;;;5033384;28;20056;-66
2022/01/19 07:41:29;;;;;;;6.32;3.20;;;;;;;;;;5033377;28;20200;-65
2022/01/19 07:43:55;;;;;;;7.30;3.03;;;;;;;;;;5031982;28;20063;-66
2022/01/19 07:46:21;;;;;;;8.73;3.92;;;;;;;;;;5031438;28;20025;-66
2022/01/19 07:48:48;;;;;;;7.80;4.35;;;;;;;;;;5035426;28;20429;-65
2022/01/19 07:51:14;;;;;;;7.72;4.20;;;;;;;;;;5033020;28;20033;-66
2022/01/19 07:53:40;;;;;;;7.65;4.03;;;;;;;;;;5032773;28;20030;-66
2022/01/19 07:56:06;;;;;;;8.68;4.20;;;;;;;;;;5033023;28;20029;-66
2022/01/19 07:58:32;;;;;;;8.85;4.13;;;;;;;;;;5029381;28;20069;-66
2022/01/19 08:00:58;;;;;;;6.85;3.63;;;;;;;;;;5051747;28;20072;-66
2022/01/19 08:03:24;;;;;;;8.05;3.67;;;;;;;;;;5032511;28;20040;-66
2022/01/19 08:05:50;;;;;;;8.90;3.47;;;;;;;;;;5034153;28;20026;-66
2022/01/19 08:08:16;;;;;;;6.40;2.95;;;;;;;;;;5032647;28;20044;-66
2022/01/19 08:10:45;;;;;;;5.38;2.28;;;;;;;;;;5029068;28;20457;-65
2022/01/19 08:13:11;;;;;;;4.72;2.55;;;;;;;;;;5033067;28;20075;-65
2022/01/19 08:15:37;;;;;;;6.65;3.05;;;;;;;;;;5033894;28;20037;-66
2022/01/19 08:18:03;;;;;;;7.93;4.10;;;;;;;;;;5032772;28;20045;-63
2022/01/19 08:20:29;;;;;;;7.57;3.97;;;;;;;;;;5032381;28;20477;-61
2022/01/19 08:22:55;;;;;;;9.30;4.70;;;;;;;;;;5030473;28;20052;-63
2022/01/19 08:25:21;;;;;;;7.55;4.00;;;;;;;;;;5031131;28;20476;-61
2022/01/19 08:27:47;;;;;;;7.75;4.03;;;;;;;;;;5035767;28;20040;-63
2022/01/19 08:30:14;;;;;;;7.88;4.60;;;;;;;;;;5032605;28;20033;-63
2022/01/19 08:32:40;;;;;;;9.55;4.03;;;;;;;;;;5032546;28;20437;-61
2022/01/19 08:35:07;;;;;;;8.18;4.20;;;;;;;;;;5031806;28;20099;-61
2022/01/19 08:37:33;;;;;;;6.13;3.42;;;;;;;;;;5012467;28;20041;-63
2022/01/19 08:39:59;;;;;;;6.22;3.20;;;;;;;;;;5036062;28;20036;-63
2022/01/19 08:42:26;;;;;;;4.95;2.70;;;;;;;;;;5032280;28;20425;-63
2022/01/19 08:44:53;;;;;;;6.72;3.30;;;;;;;;;;5032553;28;20024;-63
2022/01/19 08:47:19;;;;;;;8.48;3.72;;;;;;;;;;5032211;28;20108;-64
2022/01/19 08:49:45;;;;;;;7.75;4.05;;;;;;;;;;5029115;28;20389;-63
2022/01/19 08:52:11;;;;;;;8.90;4.25;;;;;;;;;;5033311;28;20026;-63
2022/01/19 08:54:37;;;;;;;7.40;4.10;;;;;;;;;;5037444;28;20079;-63
2022/01/19 08:57:04;;;;;;;8.35;4.10;;;;;;;;;;5035968;28;20428;-64
2022/01/19 08:59:31;;;;;;;6.53;3.13;;;;;;;;;;5031982;28;20025;-63
2022/01/19 09:01:57;;;;;;;6.30;3.13;;;;;;;;;;5031211;28;20476;-63
2022/01/19 09:04:23;;;;;;;5.38;2.85;;;;;;;;;;5030020;28;20500;-63
2022/01/19 09:06:49;;;;;;;6.72;3.53;;;;;;;;;;5034284;28;20072;-63
2022/01/19 09:09:15;;;;;;;7.07;3.47;;;;;;;;;;5032293;28;20477;-62
2022/01/19 09:11:43;;;;;;;9.38;3.88;;;;;;;;;;5032181;28;20092;-63
2022/01/19 09:14:10;;;;;;;7.72;4.07;;;;;;;;;;5031944;28;20037;-63
2022/01/19 09:16:36;;;;;;;8.43;3.95;;;;;;;;;;5027872;28;20121;-63
2022/01/19 09:19:02;;;;;;;7.25;3.70;;;;;;;;;;5035014;28;20037;-64
2022/01/19 09:21:28;;;;;;;7.78;4.13;;;;;;;;;;5030724;28;20522;-63
2022/01/19 09:23:54;;;;;;;6.88;3.65;;;;;;;;;;5035330;28;20026;-63
2022/01/19 09:26:20;;;;;;;7.50;4.00;;;;;;;;;;5037271;28;20029;-63
2022/01/19 09:28:46;;;;;;;6.93;3.88;;;;;;;;;;5033234;28;20105;-63
2022/01/19 09:31:15;;;;;;;9.00;4.05;;;;;;;;;;5036296;28;20021;-63
2022/01/19 09:33:43;;;;;;;6.78;3.55;;;;;;;;;;5036203;28;20102;-63
2022/01/19 09:38:54;;;;;;;5.90;3.40;;;;;;;;;;5035805;28;20053;-63
2022/01/19 09:41:20;;;;;;;7.82;4.07;;;;;;;;;;5036008;28;20029;-63
2022/01/19 09:43:46;;;;;;;7.13;3.60;;;;;;;;;;5032416;28;20030;-62
2022/01/19 09:46:12;;;;;;;8.15;3.10;;;;;;;;;;5035801;28;20025;-63
2022/01/19 09:48:40;;;;;;;6.20;3.10;;;;;;;;;;5036817;28;20025;-63
2022/01/19 09:51:06;;;;;;;7.13;3.33;;;;;;;;;;5035594;28;20025;-63
2022/01/19 09:53:32;;;;;;;6.97;3.50;;;;;;;;;;5035128;28;20033;-63
2022/01/19 09:55:58;;;;;;;9.20;3.55;;;;;;;;;;5034560;28;20040;-63
2022/01/19 09:58:24;;;;;;;8.15;3.22;;;;;;;;;;5033002;28;20050;-63
2022/01/19 10:00:51;;;;;;;7.40;3.15;;;;;;;;;;5037274;28;20113;-63
2022/01/19 10:03:21;;;;;;;6.00;3.00;;;;;;;;;;5035037;28;20033;-63
2022/01/19 10:06:07;;;;;;;6.20;3.42;;;;;;;;;;5035144;28;20036;-63
2022/01/19 10:08:46;;;;;;;7.03;3.53;;;;;;;;;;5035415;28;20044;-63
2022/01/19 10:11:25;;;;;;;6.20;3.33;;;;;;;;;;5034991;28;20079;-63
2022/01/19 10:17:02;;;;;;;6.63;2.75;;;;;;;;;;5016138;28;20064;-63
2022/01/19 10:19:38;;;;;;;7.10;3.40;;;;;;;;;;5032088;28;20034;-64
2022/01/19 10:22:04;;;;;;;9.70;4.20;;;;;;;;;;5046384;28;20033;-63
2022/01/19 10:24:42;;;;;;;6.60;3.55;;;;;;;;;;5036434;28;20049;-63
2022/01/19 10:27:28;;;;;;;5.53;3.20;;;;;;;;;;5036078;28;20032;-63
2022/01/19 10:30:11;;;;;;;6.97;2.50;;;;;;;;;;5034890;28;20075;-63
2022/01/19 10:32:59;;;;;;;4.32;2.22;;;;;;;;;;5034235;28;20021;-63
2022/01/19 10:35:26;;;;;;;;;;;;;;;;;;5034974;28;20083;-63
2022/01/19 10:38:12;;;;;;;5.20;2.35;;;;;;;;;;5032413;28;19996;-62
2022/01/19 10:40:39;;;;;;;3.35;1.98;;;;;;;;;;5015328;28;20030;-63
2022/01/19 10:43:23;;;;;;;4.93;2.20;;;;;;;;;;5037265;28;20064;-63
2022/01/19 10:45:49;;;;;;;4.47;2.08;;;;;;;;;;5036475;28;20482;-63
2022/01/19 10:48:29;;;;;;;3.47;1.90;;;;;;;;;;5034301;28;20037;-63
2022/01/19 10:51:05;;;;;;;4.82;2.00;;;;;;;;;;5034405;28;20033;-63
2022/01/19 10:53:31;;;;;;;4.18;1.85;;;;;;;;;;5034512;28;20024;-63
2022/01/19 10:55:57;;;;;;;4.15;1.90;;;;;;;;;;5032894;28;20427;-63
2022/01/19 10:58:23;;;;;;;4.97;2.08;;;;;;;;;;5032681;28;20034;-66
2022/01/19 11:00:54;;;;;;;4.78;1.45;;;;;;;;;;5035655;28;20081;-65
2022/01/19 11:03:25;;;;;;;3.38;1.73;;;;;;;;;;5033976;28;20053;-65
2022/01/19 11:05:52;;;;;;;6.00;2.65;;;;;;;;;;5031306;28;20025;-65
2022/01/19 11:08:20;;;;;;;3.33;2.10;;;;;;;;;;5028414;28;20043;-65
2022/01/19 11:10:50;;;;;;;4.75;2.13;;;;;;;;;;5029046;28;20017;-64
2022/01/19 11:13:26;;;;;;;3.38;1.60;;;;;;;;;;5034855;28;20029;-63
2022/01/19 11:15:52;;;;;;;4.22;2.00;;;;;;;;;;5043272;28;20055;-63
2022/01/19 11:18:19;;;;;;;4.07;2.17;;;;;;;;;;5033037;28;20481;-63
2022/01/19 11:20:47;;;;;;;5.78;2.35;;;;;;;;;;5030790;28;20064;-63
2022/01/19 11:23:22;;;;;;;4.25;2.22;;;;;;;;;;5032134;28;20024;-62
2022/01/19 11:25:57;;;;;;;4.15;2.20;;;;;;;;;;5023517;28;20128;-61
2022/01/19 11:28:24;;;;;;;4.15;1.70;;;;;;;;;;5033010;28;20197;-62
2022/01/19 11:30:50;;;;;;;3.60;1.77;;;;;;;;;;5043978;28;20557;-61
2022/01/19 11:33:24;;;;;;;5.85;1.70;;;;;;;;;;5031028;28;20440;-63
2022/01/19 11:35:51;;;;;;;4.00;1.80;;;;;;;;;;5030979;28;20500;-63
2022/01/19 11:38:35;;;;;;;4.03;1.70;;;;;;;;;;5030511;28;20168;-62
2022/01/19 11:41:04;;;;;;;4.55;1.90;;;;;;;;;;5029339;28;20021;-62
2022/01/19 11:43:30;;;;;;;4.47;1.80;;;;;;;;;;5031724;28;20022;-63
2022/01/19 11:45:58;;;;;;;4.20;2.17;;;;;;;;;;5032741;28;20053;-62
2022/01/19 11:48:26;;;;;;;4.10;2.20;;;;;;;;;;5031952;28;20711;-63
2022/01/19 11:50:52;;;;;;;9.18;2.10;;;;;;;;;;5029808;28;20059;-66
2022/01/19 11:53:19;;;;;;;5.95;2.63;;;;;;;;;;5026241;28;20040;-67
2022/01/19 11:56:04;;;;;;;4.75;2.10;;;;;;;;;;5027430;28;20511;-67
2022/01/19 11:58:30;;;;;;;5.72;2.00;;;;;;;;;;5044297;28;20068;-67
2022/01/19 12:00:57;;;;;;;5.18;1.95;;;;;;;;;;5050131;28;20029;-67
2022/01/19 12:03:26;;;;;;;4.28;2.13;;;;;;;;;;5035038;28;20116;-67
2022/01/19 12:05:54;;;;;;;5.00;2.33;;;;;;;;;;5035707;28;20472;-68
2022/01/19 12:08:40;;;;;;;3.70;1.73;;;;;;;;;;5040654;28;20465;-68
2022/01/19 12:11:12;;;;;;;4.13;1.88;;;;;;;;;;5037711;28;20546;-68
2022/01/19 12:16:17;;;;;;;4.32;1.92;;;;;;;;;;5034656;28;20500;-70
2022/01/19 12:18:47;;;;;;;4.50;2.08;;;;;;;;;;5036364;28;20233;-67
2022/01/19 12:21:17;;;;;;;3.38;1.83;;;;;;;;;;5034462;28;20019;-67
2022/01/19 12:23:43;;;;;;;5.95;2.70;;;;;;;;;;5030744;28;20045;-67
2022/01/19 12:26:10;;;;;;;10.55;2.63;;;;;;;;;;5027782;28;20037;-67
2022/01/19 12:28:39;;;;;;;5.75;2.50;;;;;;;;;;5027420;28;20021;-67
2022/01/19 12:31:24;;;;;;;5.05;2.40;;;;;;;;;;5014210;28;20026;-65
2022/01/19 12:34:07;;;;;;;7.07;2.58;;;;;;;;;;5029894;28;20041;-65
2022/01/19 12:36:50;;;;;;;6.22;2.58;;;;;;;;;;5036937;28;20442;-65
2022/01/19 12:39:25;;;;;;;5.20;2.42;;;;;;;;;;5019445;28;20041;-65
2022/01/19 12:42:00;;;;;;;7.05;2.80;;;;;;;;;;5014746;28;20037;-66
2022/01/19 12:44:35;;;;;;;5.07;2.55;;;;;;;;;;5015733;28;20026;-66
2022/01/19 12:47:24;;;;;;;6.25;2.50;;;;;;;;;;5027256;28;20059;-66
2022/01/19 12:49:54;;;;;;;6.43;2.72;;;;;;;;;;5012281;28;20048;-66
2022/01/19 12:52:22;;;;;;;6.38;2.60;;;;;;;;;;5013681;28;20034;-66
2022/01/19 12:54:49;;;;;;;4.15;2.17;;;;;;;;;;5014648;28;20026;-66
2022/01/19 12:57:15;;;;;;;5.70;2.58;;;;;;;;;;5043762;28;20111;-66
2022/01/19 12:59:43;;;;;;;7.18;2.15;;;;;;;;;;5042196;28;20033;-66
2022/01/19 13:02:09;;;;;;;5.22;2.40;;;;;;;;;;5035534;28;20106;-66
2022/01/19 13:04:39;;;;;;;5.30;2.22;;;;;;;;;;5030266;28;20034;-65
2022/01/19 13:07:17;;;;;;;6.78;2.78;;;;;;;;;;5052905;28;20025;-66
2022/01/19 13:12:50;;;;;;;5.60;2.53;;;;;;;;;;5040270;28;20073;-65
2022/01/19 13:15:17;;;;;;;5.97;2.50;;;;;;;;;;5033703;28;20392;-65
2022/01/19 13:17:48;;;;;;;8.13;2.90;;;;;;;;;;5040304;28;20455;-65
2022/01/19 13:20:15;;;;;;;6.10;2.83;;;;;;;;;;5033617;28;20033;-65
2022/01/19 13:22:48;;;;;;;5.35;2.53;;;;;;;;;;5030397;28;20030;-65
2022/01/19 13:25:19;;;;;;;7.32;2.53;;;;;;;;;;5033582;28;20056;-66
2022/01/19 13:27:46;;;;;;;6.18;2.83;;;;;;;;;;5036605;28;20031;-66
2022/01/19 13:30:13;;;;;;;6.43;3.03;;;;;;;;;;5033376;28;20096;-65
2022/01/19 13:32:39;;;;;;;7.20;3.30;;;;;;;;;;5035867;28;20017;-65
2022/01/19 13:35:06;;;;;;;7.05;2.83;;;;;;;;;;5039325;28;20031;-65
2022/01/19 13:37:35;;;;;;;8.85;3.08;;;;;;;;;;5028883;28;20108;-65
2022/01/19 13:40:11;;;;;;;6.25;3.00;;;;;;;;;;5037188;28;20029;-65
2022/01/19 13:42:39;;;;;;;8.60;3.63;;;;;;;;;;5037461;28;20028;-65
2022/01/19 13:45:25;;;;;;;9.25;3.83;;;;;;;;;;5035926;28;20021;-65
2022/01/19 13:47:54;;;;;;;7.97;3.58;;;;;;;;;;5028946;28;20064;-65
2022/01/19 13:50:21;;;;;;;11.15;4.13;;;;;;;;;;5026972;28;20022;-65
2022/01/19 13:52:47;;;;;;;6.85;3.72;;;;;;;;;;5033095;28;20441;-65
2022/01/19 13:55:17;;;;;;;12.95;5.65;;;;;;;;;;5035015;28;20481;-65
2022/01/19 13:57:43;;;;;;;9.27;4.78;;;;;;;;;;5035488;28;20037;-66
2022/01/19 14:00:10;;;;;;;11.13;4.97;;;;;;;;;;5033320;28;20036;-70
2022/01/19 14:02:36;;;;;;;9.25;4.00;;;;;;;;;;5018758;28;20029;-64
2022/01/19 14:05:04;;;;;;;10.48;4.15;;;;;;;;;;5018399;28;20030;-63
2022/01/19 14:07:30;;;;;;;9.65;4.70;;;;;;;;;;5014067;28;20022;-65
2022/01/19 14:10:06;;;;;;;10.00;4.25;;;;;;;;;;5015632;28;20037;-65
2022/01/19 14:12:32;;;;;;;10.38;4.60;;;;;;;;;;5026198;28;20029;-64
2022/01/19 14:15:00;;;;;;;8.38;4.43;;;;;;;;;;5022654;28;20037;-64
2022/01/19 14:17:26;;;;;;;;;;;;;;;;;;5018591;28;20504;-64
2022/01/19 14:19:53;;;;;;;10.93;4.53;;;;;;;;;;5015771;28;19909;-64
2022/01/19 14:22:22;;;;;;;14.57;6.22;;;;;;;;;;5015832;28;20025;-64
2022/01/19 14:24:52;;;;;;;13.00;6.10;;;;;;;;;;5016442;28;20025;-64
2022/01/19 14:27:24;;;;;;;10.38;5.05;;;;;;;;;;5019983;28;20469;-64
2022/01/19 14:29:59;;;;;;;11.23;4.90;;;;;;;;;;5017767;28;20026;-63
2022/01/19 14:32:37;;;;;;;12.63;5.85;;;;;;;;;;5017832;28;20075;-64
2022/01/19 14:35:23;;;;;;;12.65;5.22;;;;;;;;;;5017094;28;20036;-63
2022/01/19 14:37:57;;;;;;;22.00;10.10;;;;;;;;;;5014819;28;20080;-64
2022/01/19 14:40:23;;;;;;;19.58;8.20;;;;;;;;;;5029690;28;20082;-65
2022/01/19 14:42:50;;;;;;;16.08;7.88;;;;;;;;;;5016527;28;20096;-66
2022/01/19 14:45:23;;;;;;;12.07;6.60;;;;;;;;;;5017697;28;20053;-65
2022/01/19 14:47:52;;;;;;;12.43;5.82;;;;;;;;;;5016626;28;20030;-65
2022/01/19 14:50:18;;;;;;;;;;;;;;;;;;5017374;28;20042;-65
2022/01/19 14:52:44;;;;;;;10.88;5.18;;;;;;;;;;5013450;28;19913;-69
2022/01/19 14:55:10;;;;;;;10.98;5.90;;;;;;;;;;5015121;28;20104;-65
2022/01/19 14:57:36;;;;;;;13.45;6.05;;;;;;;;;;5017074;28;20128;-64
2022/01/19 15:00:05;;;;;;;13.30;7.15;;;;;;;;;;5015310;28;20037;-65
2022/01/19 15:02:31;;;;;;;15.05;7.53;;;;;;;;;;5017139;28;20037;-65
2022/01/19 15:04:57;;;;;;;18.85;8.05;;;;;;;;;;5015441;28;20087;-64
2022/01/19 15:07:23;;;;;;;13.10;7.00;;;;;;;;;;5013084;28;20057;-64
2022/01/19 15:09:49;;;;;;;13.70;6.70;;;;;;;;;;5015677;28;20053;-65
2022/01/19 15:12:15;;;;;;;13.75;6.07;;;;;;;;;;5020452;28;20037;-65
2022/01/19 15:14:40;;;;;;;9.52;5.80;;;;;;;;;;5022115;28;20030;-65
2022/01/19 15:17:08;;;;;;;12.73;5.70;;;;;;;;;;5015971;28;20039;-65
2022/01/19 15:19:34;;;;;;;11.43;5.63;;;;;;;;;;5010505;28;20041;-65
2022/01/19 15:22:00;;;;;;;12.82;5.63;;;;;;;;;;5013755;28;20033;-64
2022/01/19 15:24:26;;;;;;;12.88;5.70;;;;;;;;;;5016251;28;20444;-66
2022/01/19 15:26:53;;;;;;;15.45;7.00;;;;;;;;;;5017528;28;20033;-66
2022/01/19 15:29:18;;;;;;;13.68;7.38;;;;;;;;;;5015592;28;20033;-66
2022/01/19 15:31:48;;;;;;;13.93;6.40;;;;;;;;;;5012377;28;20052;-66
2022/01/19 15:34:14;;;;;;;11.23;6.18;;;;;;;;;;5012706;28;20033;-66
2022/01/19 15:36:40;;;;;;;12.85;7.15;;;;;;;;;;5014753;28;20401;-67
2022/01/19 15:39:07;;;;;;;13.75;6.20;;;;;;;;;;5015695;28;20096;-66
2022/01/19 15:41:33;;;;;;;12.73;5.93;;;;;;;;;;5014407;28;20503;-66
2022/01/19 15:43:59;;;;;;;15.25;7.43;;;;;;;;;;5014464;28;20025;-65
2022/01/19 15:46:25;;;;;;;13.80;6.47;;;;;;;;;;5013452;28;20740;-65
2022/01/19 15:48:51;;;;;;;12.02;6.43;;;;;;;;;;5016743;28;20032;-65
2022/01/19 15:51:17;;;;;;;12.77;4.93;;;;;;;;;;5016831;28;20076;-64
2022/01/19 15:53:43;;;;;;;14.77;6.97;;;;;;;;;;5018404;28;20029;-63
2022/01/19 15:56:09;;;;;;;11.65;6.20;;;;;;;;;;5032674;28;20055;-63
2022/01/19 15:58:35;;;;;;;13.73;6.35;;;;;;;;;;5028139;28;20099;-64
2022/01/19 16:01:01;;;;;;;13.50;5.95;;;;;;;;;;5035919;28;20060;-63
2022/01/19 16:03:27;;;;;;;13.80;6.80;;;;;;;;;;5032135;28;20430;-63
2022/01/19 16:05:54;;;;;;;11.80;6.40;;;;;;;;;;5032300;28;20072;-63
2022/01/19 16:08:21;;;;;;;18.98;8.00;;;;;;;;;;5032616;28;20060;-63
2022/01/19 16:10:48;;;;;;;17.08;9.02;;;;;;;;;;5029732;28;20433;-63
2022/01/19 16:13:15;;;;;;;21.50;11.52;;;;;;;;;;5032529;28;20116;-63
2022/01/19 16:15:41;;;;;;;20.20;11.60;;;;;;;;;;5033470;28;20026;-63
2022/01/19 16:18:07;;;;;;;17.05;9.90;;;;;;;;;;5031839;28;20029;-63
2022/01/19 16:20:34;;;;;;;20.65;10.05;;;;;;;;;;5031844;28;20535;-63
2022/01/19 16:28:30;;;;;;;18.35;9.65;;;;;;;;;;5029175;28;20648;-63
2022/01/19 16:30:56;;;;;;;16.13;8.70;;;;;;;;;;5034783;28;20112;-63
2022/01/19 16:33:22;;;;;;;12.35;6.68;;;;;;;;;;5031596;28;20394;-63
2022/01/19 16:35:48;;;;;;;17.33;9.05;;;;;;;;;;5032151;28;20033;-63